createdAt,value
2017-12-15T00:00:08.830Z,95516.38
2017-12-15T00:02:37.150Z,95512.44
2017-12-15T00:05:05.527Z,95510.25
2017-12-15T00:07:33.851Z,95505.16
2017-12-15T00:10:02.190Z,95499.11
2017-12-15T00:12:30.539Z,95497.87
2017-12-15T00:14:58.863Z,95503.98
2017-12-15T00:17:27.190Z,95501.09
2017-12-15T00:19:55.531Z,95500.11
2017-12-15T00:22:23.860Z,95498.52
2017-12-15T00:24:52.187Z,95497.00
2017-12-15T00:27:20.532Z,95488.84
2017-12-15T00:29:49.215Z,95496.46
2017-12-15T00:32:17.654Z,95488.00
2017-12-15T00:34:47.333Z,95488.63
2017-12-15T00:37:16.168Z,95467.72
2017-12-15T00:39:44.938Z,95493.22
2017-12-15T00:42:14.031Z,95498.77
2017-12-15T00:44:42.539Z,95498.99
2017-12-15T00:47:10.883Z,95498.55
2017-12-15T00:49:39.204Z,95500.37
2017-12-15T00:52:07.535Z,95499.84
2017-12-15T00:54:35.865Z,95467.76
2017-12-15T00:57:04.199Z,95508.31
2017-12-15T00:59:33.285Z,95511.53
2017-12-15T01:02:01.615Z,95508.23
2017-12-15T01:04:29.944Z,95507.44
2017-12-15T01:06:58.314Z,95506.36
2017-12-15T01:09:26.641Z,95505.52
2017-12-15T01:11:54.979Z,95515.16
2017-12-15T01:14:23.320Z,95512.18
2017-12-15T01:16:51.691Z,95513.95
2017-12-15T01:19:20.002Z,95518.02
2017-12-15T01:21:48.351Z,95520.39
2017-12-15T01:24:16.678Z,95520.50
2017-12-15T01:26:46.555Z,95522.05
2017-12-15T01:29:14.887Z,95511.53
2017-12-15T01:31:43.219Z,95519.08
2017-12-15T01:34:11.540Z,95511.78
2017-12-15T01:36:41.361Z,95510.80
2017-12-15T01:39:09.684Z,95511.92
2017-12-15T01:41:38.016Z,95509.16
2017-12-15T01:44:06.362Z,95515.71
2017-12-15T01:46:34.692Z,95524.12
2017-12-15T01:49:03.010Z,95523.26
2017-12-15T01:51:31.350Z,95522.84
2017-12-15T01:53:59.667Z,95524.11
2017-12-15T01:56:28.750Z,95531.17
2017-12-15T01:58:57.073Z,95532.09
2017-12-15T02:01:26.562Z,95537.42
2017-12-15T02:03:54.886Z,95543.30
2017-12-15T02:06:23.211Z,95535.89
2017-12-15T02:08:52.294Z,95541.13
2017-12-15T02:11:20.640Z,95535.77
2017-12-15T02:13:48.959Z,95540.64
2017-12-15T02:16:17.288Z,95539.20
2017-12-15T02:18:45.624Z,95535.11
2017-12-15T02:21:13.949Z,95539.14
2017-12-15T02:23:42.531Z,95540.05
2017-12-15T02:26:10.857Z,95535.53
2017-12-15T02:28:39.197Z,95536.97
2017-12-15T02:31:07.540Z,95540.96
2017-12-15T02:33:35.915Z,95550.20
2017-12-15T02:36:04.250Z,95553.33
2017-12-15T02:38:33.360Z,95549.10
2017-12-15T02:41:01.692Z,95547.99
2017-12-15T02:43:30.023Z,95552.10
2017-12-15T02:45:59.439Z,95553.42
2017-12-15T02:48:27.778Z,95553.73
2017-12-15T02:50:56.111Z,95555.32
2017-12-15T02:53:24.481Z,95549.08
2017-12-15T02:55:52.802Z,95559.78
2017-12-15T02:58:21.143Z,95572.78
2017-12-15T03:00:49.478Z,95577.28
2017-12-15T03:03:17.809Z,95582.55
2017-12-15T03:05:46.135Z,95582.15
2017-12-15T03:08:14.459Z,95582.52
2017-12-15T03:10:42.792Z,95593.70
2017-12-15T03:13:11.879Z,95595.96
2017-12-15T03:15:40.212Z,95597.52
2017-12-15T03:18:08.615Z,95590.14
2017-12-15T03:20:36.902Z,95605.76
2017-12-15T03:23:05.219Z,95606.48
2017-12-15T03:25:33.934Z,95614.34
2017-12-15T03:28:02.264Z,95614.29
2017-12-15T03:30:30.586Z,95617.34
2017-12-15T03:32:58.917Z,95622.02
2017-12-15T03:35:27.243Z,95618.85
2017-12-15T03:37:55.567Z,95628.25
2017-12-15T03:40:24.655Z,95638.27
2017-12-15T03:42:52.970Z,95641.89
2017-12-15T03:45:21.290Z,95648.89
2017-12-15T03:47:49.626Z,95651.38
2017-12-15T03:50:17.966Z,95661.00
2017-12-15T03:52:46.319Z,95658.30
2017-12-15T03:55:14.650Z,95661.67
2017-12-15T03:57:42.972Z,95665.24
2017-12-15T04:00:11.309Z,95673.10
2017-12-15T04:02:39.654Z,95673.43
2017-12-15T04:05:08.755Z,95677.72
2017-12-15T04:07:37.091Z,95681.56
2017-12-15T04:10:05.415Z,95693.88
2017-12-15T04:12:33.739Z,95693.39
2017-12-15T04:15:02.106Z,95695.86
2017-12-15T04:17:30.413Z,95700.20
2017-12-15T04:19:58.813Z,95705.59
2017-12-15T04:22:27.086Z,95711.02
2017-12-15T04:24:55.667Z,95714.36
2017-12-15T04:27:24.007Z,95705.09
2017-12-15T04:29:52.363Z,95706.73
2017-12-15T04:32:20.692Z,95706.53
2017-12-15T04:34:49.012Z,95716.28
2017-12-15T04:37:17.342Z,95715.78
2017-12-15T04:39:45.670Z,95718.62
2017-12-15T04:42:13.996Z,95725.36
2017-12-15T04:44:42.315Z,95728.88
2017-12-15T04:47:10.630Z,95733.92
2017-12-15T04:49:38.951Z,95740.26
2017-12-15T04:52:07.283Z,95737.80
2017-12-15T04:54:35.639Z,95740.19
2017-12-15T04:57:03.971Z,95737.66
2017-12-15T04:59:32.330Z,95745.70
2017-12-15T05:02:00.665Z,95744.22
2017-12-15T05:04:28.980Z,95748.95
2017-12-15T05:06:57.326Z,95754.39
2017-12-15T05:09:25.654Z,95750.20
2017-12-15T05:11:53.980Z,95761.84
2017-12-15T05:14:23.115Z,95766.14
2017-12-15T05:16:51.463Z,95768.19
2017-12-15T05:19:19.775Z,95770.30
2017-12-15T05:21:48.107Z,95764.42
2017-12-15T05:24:16.422Z,95766.23
2017-12-15T05:26:45.897Z,95769.25
2017-12-15T05:29:14.211Z,95765.52
2017-12-15T05:31:42.560Z,95760.75
2017-12-15T05:34:10.891Z,95760.42
2017-12-15T05:36:41.466Z,95760.16
2017-12-15T05:39:09.799Z,95770.89
2017-12-15T05:41:38.886Z,95769.00
2017-12-15T05:44:07.214Z,95773.55
2017-12-15T05:46:35.522Z,95779.42
2017-12-15T05:49:03.856Z,95775.25
2017-12-15T05:51:32.175Z,95778.38
2017-12-15T05:54:00.494Z,95779.31
2017-12-15T05:56:28.840Z,95781.39
2017-12-15T05:58:57.157Z,95791.96
2017-12-15T06:01:25.466Z,95790.78
2017-12-15T06:03:53.767Z,95790.81
2017-12-15T06:06:22.075Z,95791.75
2017-12-15T06:08:50.385Z,95797.92
2017-12-15T06:11:19.621Z,95800.00
2017-12-15T06:13:47.950Z,95803.91
2017-12-15T06:16:16.266Z,95810.05
2017-12-15T06:18:44.587Z,95818.39
2017-12-15T06:21:12.914Z,95817.42
2017-12-15T06:23:41.234Z,95817.41
2017-12-15T06:26:09.559Z,95816.00
2017-12-15T06:28:37.922Z,95812.50
2017-12-15T06:31:06.251Z,95814.70
2017-12-15T06:33:34.574Z,95808.01
2017-12-15T06:36:02.914Z,95812.72
2017-12-15T06:38:31.293Z,95820.12
2017-12-15T06:40:59.590Z,95817.78
2017-12-15T06:43:27.926Z,95832.55
2017-12-15T06:45:56.245Z,95833.33
2017-12-15T06:48:24.577Z,95833.07
2017-12-15T06:50:52.905Z,95835.29
2017-12-15T06:53:21.225Z,95839.61
2017-12-15T06:55:49.562Z,95840.08
2017-12-15T06:58:17.877Z,95848.95
2017-12-15T07:00:46.200Z,95856.13
2017-12-15T07:03:14.544Z,95870.01
2017-12-15T07:05:42.871Z,95869.72
2017-12-15T07:08:11.190Z,95876.80
2017-12-15T07:10:39.511Z,95874.98
2017-12-15T07:13:08.583Z,95882.68
2017-12-15T07:15:36.918Z,95885.10
2017-12-15T07:18:05.244Z,95888.80
2017-12-15T07:20:34.370Z,95893.69
2017-12-15T07:23:02.733Z,95901.14
2017-12-15T07:25:31.038Z,95910.73
2017-12-15T07:27:59.390Z,95913.60
2017-12-15T07:30:27.707Z,95911.44
2017-12-15T07:32:56.040Z,95914.76
2017-12-15T07:35:24.416Z,95923.25
2017-12-15T07:37:52.771Z,95924.02
2017-12-15T07:40:21.121Z,95926.61
2017-12-15T07:42:49.447Z,95927.91
2017-12-15T07:45:17.775Z,95928.16
2017-12-15T07:47:46.075Z,95917.45
2017-12-15T07:50:14.390Z,95929.48
2017-12-15T07:52:42.773Z,95937.23
2017-12-15T07:55:11.094Z,95942.62
2017-12-15T07:57:39.428Z,95952.86
2017-12-15T08:00:07.788Z,95952.51
2017-12-15T08:02:36.126Z,95957.00
2017-12-15T08:05:04.451Z,95956.75
2017-12-15T08:07:32.783Z,95959.53
2017-12-15T08:10:01.102Z,95971.84
2017-12-15T08:12:29.423Z,95975.98
2017-12-15T08:14:57.755Z,95978.95
2017-12-15T08:17:26.084Z,95991.56
2017-12-15T08:19:54.422Z,95994.10
2017-12-15T08:22:22.767Z,96002.73
2017-12-15T08:24:51.110Z,96008.72
2017-12-15T08:27:19.443Z,96010.98
2017-12-15T08:29:47.774Z,96016.53
2017-12-15T08:32:16.104Z,96016.84
2017-12-15T08:34:44.423Z,96021.78
2017-12-15T08:37:12.750Z,96026.58
2017-12-15T08:39:41.092Z,96023.78
2017-12-15T08:42:09.414Z,96031.32
2017-12-15T08:44:37.734Z,96031.44
2017-12-15T08:47:06.044Z,96040.38
2017-12-15T08:49:34.356Z,96044.09
2017-12-15T08:52:02.678Z,96048.76
2017-12-15T08:54:30.985Z,96051.20
2017-12-15T08:56:59.311Z,96054.97
2017-12-15T08:59:27.631Z,96059.98
2017-12-15T09:01:55.955Z,96059.16
2017-12-15T09:04:24.304Z,96063.60
2017-12-15T09:06:52.632Z,96064.23
2017-12-15T09:09:20.962Z,96069.63
2017-12-15T09:11:49.287Z,96072.56
2017-12-15T09:14:17.608Z,96071.27
2017-12-15T09:16:45.938Z,96067.75
2017-12-15T09:19:14.267Z,96067.27
2017-12-15T09:21:42.583Z,96065.50
2017-12-15T09:24:10.941Z,96068.08
2017-12-15T09:26:39.234Z,96060.45
2017-12-15T09:29:07.543Z,96065.42
2017-12-15T09:31:35.881Z,96063.78
2017-12-15T09:34:04.185Z,96070.91
2017-12-15T09:36:32.523Z,96074.39
2017-12-15T09:39:00.871Z,96072.20
2017-12-15T09:41:29.958Z,96068.92
2017-12-15T09:43:59.053Z,96065.52
2017-12-15T09:46:27.387Z,96070.22
2017-12-15T09:48:55.723Z,96069.73
2017-12-15T09:51:24.831Z,96074.39
2017-12-15T09:53:53.149Z,96073.34
2017-12-15T09:56:21.475Z,96073.38
2017-12-15T09:58:49.798Z,96081.47
2017-12-15T10:01:18.132Z,96081.86
2017-12-15T10:03:46.455Z,96084.60
2017-12-15T10:06:14.775Z,96083.50
2017-12-15T10:08:43.100Z,96085.77
2017-12-15T10:11:11.432Z,96088.91
2017-12-15T10:13:40.619Z,96080.56
2017-12-15T10:16:09.698Z,96084.20
2017-12-15T10:18:38.037Z,96082.76
2017-12-15T10:21:06.381Z,96083.03
2017-12-15T10:23:34.902Z,96077.81
2017-12-15T10:26:03.431Z,96077.35
2017-12-15T10:28:32.196Z,96076.48
2017-12-15T10:31:00.623Z,96081.52
2017-12-15T10:33:29.118Z,96078.59
2017-12-15T10:35:57.435Z,96080.13
2017-12-15T10:38:25.775Z,96075.11
2017-12-15T10:40:54.431Z,96080.19
2017-12-15T10:43:22.833Z,96080.56
2017-12-15T10:45:51.242Z,96072.25
2017-12-15T10:48:19.582Z,96072.64
2017-12-15T10:50:47.982Z,96079.05
2017-12-15T10:53:16.304Z,96077.61
2017-12-15T10:55:44.832Z,96074.60
2017-12-15T10:58:13.623Z,96076.97
2017-12-15T11:00:42.039Z,96080.00
2017-12-15T11:03:10.367Z,96072.12
2017-12-15T11:05:38.764Z,96074.45
2017-12-15T11:08:07.255Z,96072.88
2017-12-15T11:10:35.647Z,96072.00
2017-12-15T11:13:03.975Z,96067.52
2017-12-15T11:15:32.292Z,96064.81
2017-12-15T11:18:01.748Z,96056.39
2017-12-15T11:20:30.956Z,96058.84
2017-12-15T11:23:00.019Z,96054.65
2017-12-15T11:25:28.331Z,96055.09
2017-12-15T11:27:56.642Z,96046.95
2017-12-15T11:30:24.967Z,96046.38
2017-12-15T11:32:53.287Z,96044.25
2017-12-15T11:35:21.599Z,96036.94
2017-12-15T11:37:49.918Z,96038.15
2017-12-15T11:40:18.251Z,96035.89
2017-12-15T11:42:46.579Z,96037.38
2017-12-15T11:45:14.904Z,96035.27
2017-12-15T11:47:43.234Z,96042.61
2017-12-15T11:50:11.568Z,96046.16
2017-12-15T11:52:39.902Z,96046.78
2017-12-15T11:55:08.215Z,96048.20
2017-12-15T11:57:36.547Z,96048.62
2017-12-15T12:00:05.570Z,96050.68
2017-12-15T12:02:33.935Z,96053.09
2017-12-15T12:05:02.264Z,96049.94
2017-12-15T12:07:30.611Z,96048.38
2017-12-15T12:09:58.967Z,96052.30
2017-12-15T12:12:27.299Z,96048.81
2017-12-15T12:14:55.687Z,96047.66
2017-12-15T12:17:24.015Z,96053.82
2017-12-15T12:19:52.351Z,96048.18
2017-12-15T12:22:20.832Z,96052.78
2017-12-15T12:24:49.159Z,96046.93
2017-12-15T12:27:17.487Z,96045.00
2017-12-15T12:29:45.840Z,96044.16
2017-12-15T12:32:14.975Z,96038.71
2017-12-15T12:34:43.375Z,96039.66
2017-12-15T12:37:11.710Z,96039.58
2017-12-15T12:39:40.030Z,96032.97
2017-12-15T12:42:08.350Z,96034.62
2017-12-15T12:44:37.434Z,96035.25
2017-12-15T12:47:05.750Z,96035.25
2017-12-15T12:49:34.104Z,96036.89
2017-12-15T12:52:03.230Z,96033.63
2017-12-15T12:54:31.573Z,96027.28
2017-12-15T12:56:59.986Z,96033.25
2017-12-15T12:59:28.322Z,96031.41
2017-12-15T13:01:56.651Z,96030.20
2017-12-15T13:04:24.971Z,96030.81
2017-12-15T13:06:54.074Z,96038.97
2017-12-15T13:09:22.411Z,96037.72
2017-12-15T13:11:50.748Z,96035.57
2017-12-15T13:14:19.082Z,96044.34
2017-12-15T13:16:47.418Z,96036.75
2017-12-15T13:19:15.769Z,96035.88
2017-12-15T13:21:44.102Z,96031.92
2017-12-15T13:24:12.423Z,96035.36
2017-12-15T13:26:41.244Z,96032.47
2017-12-15T13:29:09.580Z,96028.39
2017-12-15T13:31:37.903Z,96035.05
2017-12-15T13:34:06.233Z,96042.06
2017-12-15T13:36:34.558Z,96044.80
2017-12-15T13:39:02.875Z,96047.77
2017-12-15T13:41:31.202Z,96047.48
2017-12-15T13:43:59.527Z,96047.52
2017-12-15T13:46:27.851Z,96052.77
2017-12-15T13:48:56.179Z,96057.89
2017-12-15T13:51:24.503Z,96060.06
2017-12-15T13:53:52.817Z,96063.11
2017-12-15T13:56:21.154Z,96064.46
2017-12-15T13:58:49.467Z,96066.21
2017-12-15T14:01:17.791Z,96062.28
2017-12-15T14:03:46.117Z,96061.60
2017-12-15T14:06:16.067Z,96069.59
2017-12-15T14:08:44.383Z,96072.50
2017-12-15T14:11:12.724Z,96073.52
2017-12-15T14:13:41.038Z,96077.95
2017-12-15T14:16:09.351Z,96082.95
2017-12-15T14:18:37.676Z,96073.41
2017-12-15T14:21:06.005Z,96079.63
2017-12-15T14:23:34.314Z,96080.53
2017-12-15T14:26:02.655Z,96091.25
2017-12-15T14:28:30.962Z,96091.05
2017-12-15T14:30:59.285Z,96096.38
2017-12-15T14:33:27.589Z,96098.00
2017-12-15T14:35:55.906Z,96099.88
2017-12-15T14:38:24.990Z,96108.97
2017-12-15T14:40:53.309Z,96110.84
2017-12-15T14:43:21.629Z,96117.58
2017-12-15T14:45:50.000Z,96124.64
2017-12-15T14:48:18.328Z,96124.81
2017-12-15T14:50:46.767Z,96130.22
2017-12-15T14:53:15.066Z,96128.98
2017-12-15T14:55:43.411Z,96134.42
2017-12-15T14:58:11.726Z,96135.89
2017-12-15T15:00:40.058Z,96142.31
2017-12-15T15:03:08.382Z,96153.97
2017-12-15T15:05:37.504Z,96159.14
2017-12-15T15:08:05.839Z,96160.66
2017-12-15T15:10:34.175Z,96165.30
2017-12-15T15:13:02.646Z,96163.16
2017-12-15T15:15:30.985Z,96166.02
2017-12-15T15:18:00.223Z,96169.03
2017-12-15T15:20:28.533Z,96165.08
2017-12-15T15:22:56.882Z,96168.88
2017-12-15T15:25:25.238Z,96169.94
2017-12-15T15:27:53.555Z,96181.16
2017-12-15T15:30:21.967Z,96184.20
2017-12-15T15:32:50.309Z,96184.16
2017-12-15T15:35:18.627Z,96183.42
2017-12-15T15:37:47.011Z,96186.61
2017-12-15T15:40:15.358Z,96183.85
2017-12-15T15:42:43.710Z,96190.36
2017-12-15T15:45:12.030Z,96194.03
2017-12-15T15:47:40.395Z,96191.77
2017-12-15T15:50:08.727Z,96200.59
2017-12-15T15:52:37.051Z,96194.18
2017-12-15T15:55:05.407Z,96203.39
2017-12-15T15:57:33.738Z,96203.02
2017-12-15T16:00:02.064Z,96210.02
2017-12-15T16:02:30.382Z,96213.19
2017-12-15T16:04:59.461Z,96219.15
2017-12-15T16:07:27.799Z,96228.07
2017-12-15T16:09:56.127Z,96222.94
2017-12-15T16:12:25.215Z,96232.63
2017-12-15T16:14:53.534Z,96228.66
2017-12-15T16:17:22.631Z,96231.11
2017-12-15T16:19:50.955Z,96234.50
2017-12-15T16:22:19.289Z,96243.31
2017-12-15T16:24:47.607Z,96236.09
2017-12-15T16:27:15.951Z,96230.53
2017-12-15T16:29:44.296Z,96233.94
2017-12-15T16:32:12.620Z,96245.17
2017-12-15T16:34:41.144Z,96253.12
2017-12-15T16:37:10.242Z,96239.40
2017-12-15T16:39:40.295Z,96243.89
2017-12-15T16:42:08.631Z,96241.28
2017-12-15T16:44:36.972Z,96244.77
2017-12-15T16:47:05.294Z,96243.07
2017-12-15T16:49:33.631Z,96247.73
2017-12-15T16:52:01.947Z,96254.37
2017-12-15T16:54:31.039Z,96261.84
2017-12-15T16:56:59.365Z,96258.56
2017-12-15T16:59:27.690Z,96266.59
2017-12-15T17:01:57.898Z,96265.20
2017-12-15T17:04:26.223Z,96263.43
2017-12-15T17:06:54.550Z,96268.33
2017-12-15T17:09:22.862Z,96268.11
2017-12-15T17:11:51.258Z,96265.47
2017-12-15T17:14:20.059Z,96272.70
2017-12-15T17:16:48.403Z,96279.03
2017-12-15T17:19:16.804Z,96282.61
2017-12-15T17:21:45.531Z,96282.41
2017-12-15T17:24:13.919Z,96281.45
2017-12-15T17:26:43.684Z,96277.52
2017-12-15T17:29:12.010Z,96280.39
2017-12-15T17:31:40.358Z,96280.81
2017-12-15T17:34:08.759Z,96284.66
2017-12-15T17:36:37.098Z,96289.70
2017-12-15T17:39:05.454Z,96299.17
2017-12-15T17:41:33.798Z,96304.43
2017-12-15T17:44:02.131Z,96297.98
2017-12-15T17:46:30.491Z,96306.00
2017-12-15T17:48:58.801Z,96316.98
2017-12-15T17:51:27.132Z,96317.77
2017-12-15T17:53:55.449Z,96307.59
2017-12-15T17:56:23.771Z,96310.88
2017-12-15T17:58:52.088Z,96314.73
2017-12-15T18:01:20.466Z,96315.47
2017-12-15T18:03:48.777Z,96317.03
2017-12-15T18:06:17.115Z,96315.30
2017-12-15T18:08:45.447Z,96327.97
2017-12-15T18:11:13.780Z,96329.72
2017-12-15T18:13:42.102Z,96331.94
2017-12-15T18:16:10.435Z,96336.47
2017-12-15T18:18:38.755Z,96339.22
2017-12-15T18:21:07.098Z,96336.13
2017-12-15T18:23:35.428Z,96341.55
2017-12-15T18:26:03.767Z,96344.06
2017-12-15T18:28:32.091Z,96347.95
2017-12-15T18:31:01.184Z,96356.36
2017-12-15T18:33:29.522Z,96356.34
2017-12-15T18:35:57.847Z,96358.80
2017-12-15T18:38:26.996Z,96364.23
2017-12-15T18:40:56.302Z,96365.94
2017-12-15T18:43:25.197Z,96376.19
2017-12-15T18:45:53.780Z,96382.50
2017-12-15T18:48:22.979Z,96379.85
2017-12-15T18:50:51.372Z,96378.58
2017-12-15T18:53:19.813Z,96390.52
2017-12-15T18:55:48.439Z,96392.70
2017-12-15T18:58:17.039Z,96385.19
2017-12-15T19:00:46.046Z,96394.06
2017-12-15T19:03:14.968Z,96399.19
2017-12-15T19:05:43.589Z,96400.38
2017-12-15T19:08:13.136Z,96410.57
2017-12-15T19:10:42.311Z,96421.58
2017-12-15T19:13:11.367Z,96413.98
2017-12-15T19:15:41.353Z,96416.10
2017-12-15T19:18:11.914Z,96415.23
2017-12-15T19:20:42.136Z,96416.43
2017-12-15T19:23:12.341Z,96420.66
2017-12-15T19:25:42.174Z,96414.38
2017-12-15T19:28:12.328Z,96419.94
2017-12-15T19:30:43.214Z,96419.95
2017-12-15T19:33:13.217Z,96427.96
2017-12-15T19:35:42.991Z,96424.71
2017-12-15T19:38:12.921Z,96425.98
2017-12-15T19:40:43.119Z,96439.45
2017-12-15T19:43:13.253Z,96443.27
2017-12-15T19:45:43.460Z,96448.28
2017-12-15T19:48:13.720Z,96445.31
2017-12-15T19:50:43.655Z,96455.89
2017-12-15T19:53:13.771Z,96451.13
2017-12-15T19:55:43.787Z,96447.73
2017-12-15T19:58:13.732Z,96449.77
2017-12-15T20:00:44.704Z,96448.04
2017-12-15T20:03:14.650Z,96449.73
2017-12-15T20:05:44.569Z,96445.52
2017-12-15T20:08:14.487Z,96443.81
2017-12-15T20:10:45.109Z,96457.28
2017-12-15T20:13:15.125Z,96454.81
2017-12-15T20:15:45.076Z,96458.63
2017-12-15T20:18:14.995Z,96461.98
2017-12-15T20:20:45.014Z,96466.63
2017-12-15T20:23:15.171Z,96469.54
2017-12-15T20:25:45.452Z,96464.04
2017-12-15T20:28:15.425Z,96474.19
2017-12-15T20:30:45.496Z,96481.80
2017-12-15T20:33:15.648Z,96478.88
2017-12-15T20:35:45.703Z,96482.69
2017-12-15T20:38:15.601Z,96478.02
2017-12-15T20:40:45.758Z,96475.92
2017-12-15T20:43:15.962Z,96478.03
2017-12-15T20:45:46.582Z,96478.09
2017-12-15T20:48:16.585Z,96482.36
2017-12-15T20:50:46.561Z,96487.41
2017-12-15T20:53:17.526Z,96487.42
2017-12-15T20:55:48.542Z,96493.73
2017-12-15T20:58:18.562Z,96491.25
2017-12-15T21:00:48.634Z,96492.47
2017-12-15T21:03:18.611Z,96498.81
2017-12-15T21:05:48.749Z,96498.01
2017-12-15T21:08:18.651Z,96505.58
2017-12-15T21:10:48.688Z,96506.84
2017-12-15T21:13:19.135Z,96506.84
2017-12-15T21:15:49.028Z,96513.16
2017-12-15T21:18:19.013Z,96513.20
2017-12-15T21:20:49.684Z,96513.61
2017-12-15T21:23:19.617Z,96511.50
2017-12-15T21:25:49.662Z,96513.20
2017-12-15T21:28:19.681Z,96511.09
2017-12-15T21:30:49.526Z,96516.13
2017-12-15T21:33:19.395Z,96526.25
2017-12-15T21:35:49.326Z,96524.14
2017-12-15T21:38:20.239Z,96530.47
2017-12-15T21:40:50.600Z,96529.61
2017-12-15T21:43:21.319Z,96536.78
2017-12-15T21:45:51.237Z,96539.72
2017-12-15T21:48:21.877Z,96543.52
2017-12-15T21:50:51.742Z,96541.42
2017-12-15T21:53:21.575Z,96547.73
2017-12-15T21:55:51.510Z,96543.94
2017-12-15T21:58:21.848Z,96549.83
2017-12-15T22:00:51.787Z,96554.48
2017-12-15T22:03:21.637Z,96551.05
2017-12-15T22:05:51.504Z,96555.33
2017-12-15T22:08:21.423Z,96556.17
2017-12-15T22:10:51.354Z,96571.34
2017-12-15T22:13:21.148Z,96573.86
2017-12-15T22:15:50.980Z,96576.39
2017-12-15T22:18:21.827Z,96576.36
2017-12-15T22:20:51.610Z,96580.60
2017-12-15T22:23:21.437Z,96582.70
2017-12-15T22:25:51.067Z,96583.55
2017-12-15T22:28:20.823Z,96587.31
2017-12-15T22:30:50.557Z,96594.06
2017-12-15T22:33:20.292Z,96601.66
2017-12-15T22:35:49.985Z,96596.59
2017-12-15T22:38:18.812Z,96597.45
2017-12-15T22:40:47.201Z,96607.12
2017-12-15T22:43:15.544Z,96612.03
2017-12-15T22:45:43.952Z,96621.53
2017-12-15T22:48:12.302Z,96624.01
2017-12-15T22:50:40.628Z,96620.59
2017-12-15T22:53:08.955Z,96619.86
2017-12-15T22:55:37.286Z,96617.57
2017-12-15T22:58:05.628Z,96621.80
2017-12-15T23:00:33.961Z,96626.06
2017-12-15T23:03:02.287Z,96628.92
2017-12-15T23:05:30.615Z,96631.00
2017-12-15T23:07:58.939Z,96629.40
2017-12-15T23:10:27.259Z,96631.05
2017-12-15T23:12:56.496Z,96628.40
2017-12-15T23:15:24.810Z,96631.25
2017-12-15T23:17:53.912Z,96632.45
2017-12-15T23:20:23.006Z,96636.39
2017-12-15T23:22:52.109Z,96636.55
2017-12-15T23:25:20.427Z,96632.08
2017-12-15T23:27:48.768Z,96632.58
2017-12-15T23:30:17.088Z,96645.69
2017-12-15T23:32:45.411Z,96641.55
2017-12-15T23:35:14.547Z,96641.55
2017-12-15T23:37:42.863Z,96639.86
2017-12-15T23:40:11.185Z,96645.31
2017-12-15T23:42:39.514Z,96640.30
2017-12-15T23:45:07.839Z,96637.36
2017-12-15T23:47:36.168Z,96642.41
2017-12-15T23:50:04.498Z,96639.41
2017-12-15T23:52:32.824Z,96646.60
2017-12-15T23:55:18.780Z,96642.35
2017-12-15T23:57:47.098Z,96645.34
